sensor_id;sensor_type;location;lat;lon;timestamp;P1;durP1;ratioP1;P2;durP2;ratioP2
52878;SDS011;38747;53.140;6.498;2023-08-30T00:00:40;11.52;;;7.50;;
52878;SDS011;38747;53.140;6.498;2023-08-30T00:03:06;11.30;;;7.07;;
52878;SDS011;38747;53.140;6.498;2023-08-30T00:05:32;11.05;;;6.93;;
52878;SDS011;38747;53.140;6.498;2023-08-30T00:07:57;10.25;;;6.63;;
52878;SDS011;38747;53.140;6.498;2023-08-30T00:10:23;9.73;;;6.07;;
52878;SDS011;38747;53.140;6.498;2023-08-30T00:12:49;12.85;;;6.90;;
52878;SDS011;38747;53.140;6.498;2023-08-30T00:15:15;11.47;;;6.83;;
52878;SDS011;38747;53.140;6.498;2023-08-30T00:17:41;11.27;;;7.00;;
52878;SDS011;38747;53.140;6.498;2023-08-30T00:20:07;10.45;;;6.88;;
52878;SDS011;38747;53.140;6.498;2023-08-30T00:22:34;10.57;;;6.60;;
52878;SDS011;38747;53.140;6.498;2023-08-30T00:25:00;11.17;;;7.43;;
52878;SDS011;38747;53.140;6.498;2023-08-30T00:27:26;12.40;;;8.05;;
52878;SDS011;38747;53.140;6.498;2023-08-30T00:29:52;10.70;;;7.25;;
52878;SDS011;38747;53.140;6.498;2023-08-30T00:32:17;11.97;;;7.80;;
52878;SDS011;38747;53.140;6.498;2023-08-30T00:34:43;12.45;;;8.02;;
52878;SDS011;38747;53.140;6.498;2023-08-30T00:37:09;13.67;;;7.50;;
52878;SDS011;38747;53.140;6.498;2023-08-30T00:39:37;14.35;;;7.82;;
52878;SDS011;38747;53.140;6.498;2023-08-30T00:42:04;12.13;;;7.43;;
52878;SDS011;38747;53.140;6.498;2023-08-30T00:44:32;12.00;;;7.63;;
52878;SDS011;38747;53.140;6.498;2023-08-30T00:46:58;13.15;;;7.82;;
52878;SDS011;38747;53.140;6.498;2023-08-30T00:49:25;11.13;;;7.10;;
52878;SDS011;38747;53.140;6.498;2023-08-30T00:51:50;13.20;;;7.77;;
52878;SDS011;38747;53.140;6.498;2023-08-30T00:54:17;11.55;;;7.60;;
52878;SDS011;38747;53.140;6.498;2023-08-30T00:56:43;11.98;;;7.65;;
52878;SDS011;38747;53.140;6.498;2023-08-30T00:59:09;12.00;;;6.80;;
52878;SDS011;38747;53.140;6.498;2023-08-30T01:01:35;11.40;;;7.00;;
52878;SDS011;38747;53.140;6.498;2023-08-30T01:04:01;12.25;;;6.90;;
52878;SDS011;38747;53.140;6.498;2023-08-30T01:06:27;13.15;;;7.30;;
52878;SDS011;38747;53.140;6.498;2023-08-30T01:08:52;12.45;;;7.03;;
52878;SDS011;38747;53.140;6.498;2023-08-30T01:16:47;12.73;;;6.75;;
52878;SDS011;38747;53.140;6.498;2023-08-30T01:19:22;10.88;;;6.97;;
52878;SDS011;38747;53.140;6.498;2023-08-30T01:22:08;11.17;;;6.80;;
52878;SDS011;38747;53.140;6.498;2023-08-30T01:27:29;12.15;;;7.20;;
52878;SDS011;38747;53.140;6.498;2023-08-30T01:29:57;13.07;;;7.07;;
52878;SDS011;38747;53.140;6.498;2023-08-30T01:32:23;12.40;;;7.15;;
52878;SDS011;38747;53.140;6.498;2023-08-30T01:34:51;11.23;;;6.50;;
52878;SDS011;38747;53.140;6.498;2023-08-30T01:37:16;9.30;;;5.70;;
52878;SDS011;38747;53.140;6.498;2023-08-30T01:39:43;11.93;;;6.63;;
52878;SDS011;38747;53.140;6.498;2023-08-30T01:42:09;10.40;;;6.22;;
52878;SDS011;38747;53.140;6.498;2023-08-30T01:44:36;10.13;;;5.87;;
52878;SDS011;38747;53.140;6.498;2023-08-30T01:47:06;10.25;;;5.32;;
52878;SDS011;38747;53.140;6.498;2023-08-30T01:49:32;9.93;;;5.53;;
52878;SDS011;38747;53.140;6.498;2023-08-30T01:51:58;9.20;;;5.57;;
52878;SDS011;38747;53.140;6.498;2023-08-30T01:54:25;11.70;;;5.97;;
52878;SDS011;38747;53.140;6.498;2023-08-30T01:56:51;9.70;;;5.40;;
52878;SDS011;38747;53.140;6.498;2023-08-30T01:59:17;9.40;;;5.13;;
52878;SDS011;38747;53.140;6.498;2023-08-30T02:01:43;10.40;;;5.30;;
52878;SDS011;38747;53.140;6.498;2023-08-30T02:04:09;9.53;;;5.43;;
52878;SDS011;38747;53.140;6.498;2023-08-30T02:09:54;10.75;;;6.38;;
52878;SDS011;38747;53.140;6.498;2023-08-30T02:12:33;12.52;;;7.22;;
52878;SDS011;38747;53.140;6.498;2023-08-30T02:15:04;13.80;;;7.53;;
52878;SDS011;38747;53.140;6.498;2023-08-30T02:17:32;13.68;;;7.35;;
52878;SDS011;38747;53.140;6.498;2023-08-30T02:20:00;11.97;;;6.70;;
52878;SDS011;38747;53.140;6.498;2023-08-30T02:22:26;12.30;;;7.38;;
52878;SDS011;38747;53.140;6.498;2023-08-30T02:24:52;13.40;;;7.60;;
52878;SDS011;38747;53.140;6.498;2023-08-30T02:27:17;11.67;;;7.13;;
52878;SDS011;38747;53.140;6.498;2023-08-30T02:29:43;13.70;;;7.57;;
52878;SDS011;38747;53.140;6.498;2023-08-30T02:32:08;13.05;;;7.90;;
52878;SDS011;38747;53.140;6.498;2023-08-30T02:34:34;11.53;;;6.60;;
52878;SDS011;38747;53.140;6.498;2023-08-30T02:37:00;14.00;;;7.50;;
52878;SDS011;38747;53.140;6.498;2023-08-30T02:39:27;13.05;;;7.55;;
52878;SDS011;38747;53.140;6.498;2023-08-30T02:41:52;12.17;;;6.90;;
52878;SDS011;38747;53.140;6.498;2023-08-30T02:44:18;11.63;;;6.75;;
52878;SDS011;38747;53.140;6.498;2023-08-30T02:46:43;12.53;;;7.27;;
52878;SDS011;38747;53.140;6.498;2023-08-30T02:49:09;13.68;;;7.55;;
52878;SDS011;38747;53.140;6.498;2023-08-30T02:51:36;13.55;;;7.85;;
52878;SDS011;38747;53.140;6.498;2023-08-30T02:54:01;12.70;;;6.80;;
52878;SDS011;38747;53.140;6.498;2023-08-30T02:56:27;13.77;;;7.47;;
52878;SDS011;38747;53.140;6.498;2023-08-30T02:58:53;11.73;;;7.40;;
52878;SDS011;38747;53.140;6.498;2023-08-30T03:01:19;12.97;;;7.53;;
52878;SDS011;38747;53.140;6.498;2023-08-30T03:03:47;14.48;;;7.80;;
52878;SDS011;38747;53.140;6.498;2023-08-30T03:06:13;13.27;;;7.18;;
52878;SDS011;38747;53.140;6.498;2023-08-30T03:08:41;10.75;;;6.50;;
52878;SDS011;38747;53.140;6.498;2023-08-30T03:11:08;14.60;;;7.27;;
52878;SDS011;38747;53.140;6.498;2023-08-30T03:13:34;12.60;;;6.90;;
52878;SDS011;38747;53.140;6.498;2023-08-30T03:16:02;14.02;;;6.97;;
52878;SDS011;38747;53.140;6.498;2023-08-30T03:18:35;11.70;;;7.30;;
52878;SDS011;38747;53.140;6.498;2023-08-30T03:21:00;12.98;;;7.10;;
52878;SDS011;38747;53.140;6.498;2023-08-30T03:23:30;13.02;;;7.60;;
52878;SDS011;38747;53.140;6.498;2023-08-30T03:25:57;13.37;;;7.67;;
52878;SDS011;38747;53.140;6.498;2023-08-30T03:28:23;13.73;;;7.93;;
52878;SDS011;38747;53.140;6.498;2023-08-30T03:30:48;12.10;;;7.13;;
52878;SDS011;38747;53.140;6.498;2023-08-30T03:33:14;13.00;;;7.07;;
52878;SDS011;38747;53.140;6.498;2023-08-30T03:35:40;14.57;;;7.43;;
52878;SDS011;38747;53.140;6.498;2023-08-30T03:38:05;12.13;;;7.32;;
52878;SDS011;38747;53.140;6.498;2023-08-30T03:40:31;11.90;;;6.90;;
52878;SDS011;38747;53.140;6.498;2023-08-30T03:42:56;14.07;;;7.28;;
52878;SDS011;38747;53.140;6.498;2023-08-30T03:45:22;12.27;;;7.17;;
52878;SDS011;38747;53.140;6.498;2023-08-30T03:47:48;13.07;;;7.63;;
52878;SDS011;38747;53.140;6.498;2023-08-30T03:50:13;14.97;;;7.37;;
52878;SDS011;38747;53.140;6.498;2023-08-30T03:52:39;14.23;;;7.35;;
52878;SDS011;38747;53.140;6.498;2023-08-30T03:55:05;12.93;;;7.07;;
52878;SDS011;38747;53.140;6.498;2023-08-30T03:57:30;13.10;;;7.43;;
52878;SDS011;38747;53.140;6.498;2023-08-30T03:59:56;13.00;;;7.20;;
52878;SDS011;38747;53.140;6.498;2023-08-30T04:02:22;12.57;;;7.13;;
52878;SDS011;38747;53.140;6.498;2023-08-30T04:04:48;12.97;;;7.90;;
52878;SDS011;38747;53.140;6.498;2023-08-30T04:07:14;13.43;;;7.22;;
52878;SDS011;38747;53.140;6.498;2023-08-30T04:09:40;13.05;;;7.85;;
52878;SDS011;38747;53.140;6.498;2023-08-30T04:12:06;13.05;;;7.28;;
52878;SDS011;38747;53.140;6.498;2023-08-30T04:14:31;13.67;;;7.37;;
52878;SDS011;38747;53.140;6.498;2023-08-30T04:16:57;11.63;;;7.38;;
52878;SDS011;38747;53.140;6.498;2023-08-30T04:19:23;11.87;;;7.30;;
52878;SDS011;38747;53.140;6.498;2023-08-30T04:21:49;12.52;;;7.10;;
52878;SDS011;38747;53.140;6.498;2023-08-30T04:24:15;12.07;;;6.65;;
52878;SDS011;38747;53.140;6.498;2023-08-30T04:26:40;13.40;;;7.40;;
52878;SDS011;38747;53.140;6.498;2023-08-30T04:29:06;11.90;;;7.10;;
52878;SDS011;38747;53.140;6.498;2023-08-30T04:31:32;11.63;;;6.53;;
52878;SDS011;38747;53.140;6.498;2023-08-30T04:33:58;12.00;;;6.90;;
52878;SDS011;38747;53.140;6.498;2023-08-30T04:36:23;11.70;;;7.20;;
52878;SDS011;38747;53.140;6.498;2023-08-30T04:38:49;12.18;;;6.90;;
52878;SDS011;38747;53.140;6.498;2023-08-30T04:41:15;13.27;;;7.10;;
52878;SDS011;38747;53.140;6.498;2023-08-30T04:43:40;11.60;;;6.95;;
52878;SDS011;38747;53.140;6.498;2023-08-30T04:46:06;10.87;;;6.23;;
52878;SDS011;38747;53.140;6.498;2023-08-30T04:48:31;13.25;;;7.00;;
52878;SDS011;38747;53.140;6.498;2023-08-30T04:50:58;11.80;;;6.60;;
52878;SDS011;38747;53.140;6.498;2023-08-30T04:53:30;12.38;;;6.50;;
52878;SDS011;38747;53.140;6.498;2023-08-30T04:55:56;12.32;;;6.57;;
52878;SDS011;38747;53.140;6.498;2023-08-30T04:58:22;11.30;;;6.60;;
52878;SDS011;38747;53.140;6.498;2023-08-30T05:00:47;12.30;;;6.05;;
52878;SDS011;38747;53.140;6.498;2023-08-30T05:03:13;13.03;;;6.90;;
52878;SDS011;38747;53.140;6.498;2023-08-30T05:05:39;12.07;;;6.60;;
52878;SDS011;38747;53.140;6.498;2023-08-30T05:08:04;11.95;;;6.15;;
52878;SDS011;38747;53.140;6.498;2023-08-30T05:10:30;11.13;;;6.37;;
52878;SDS011;38747;53.140;6.498;2023-08-30T05:12:57;11.05;;;6.13;;
52878;SDS011;38747;53.140;6.498;2023-08-30T05:15:23;11.02;;;6.43;;
52878;SDS011;38747;53.140;6.498;2023-08-30T05:17:48;11.60;;;6.30;;
52878;SDS011;38747;53.140;6.498;2023-08-30T05:20:14;11.30;;;6.53;;
52878;SDS011;38747;53.140;6.498;2023-08-30T05:22:39;12.37;;;6.77;;
52878;SDS011;38747;53.140;6.498;2023-08-30T05:25:05;11.48;;;6.95;;
52878;SDS011;38747;53.140;6.498;2023-08-30T05:27:31;14.87;;;6.57;;
52878;SDS011;38747;53.140;6.498;2023-08-30T05:29:57;10.75;;;6.25;;
52878;SDS011;38747;53.140;6.498;2023-08-30T05:32:22;13.00;;;6.40;;
52878;SDS011;38747;53.140;6.498;2023-08-30T05:34:48;12.30;;;6.60;;
52878;SDS011;38747;53.140;6.498;2023-08-30T05:37:13;12.53;;;6.53;;
52878;SDS011;38747;53.140;6.498;2023-08-30T05:39:39;12.45;;;6.25;;
52878;SDS011;38747;53.140;6.498;2023-08-30T05:42:05;11.00;;;6.30;;
52878;SDS011;38747;53.140;6.498;2023-08-30T05:44:30;12.60;;;6.82;;
52878;SDS011;38747;53.140;6.498;2023-08-30T05:46:56;14.13;;;6.73;;
52878;SDS011;38747;53.140;6.498;2023-08-30T05:49:22;13.52;;;6.53;;
52878;SDS011;38747;53.140;6.498;2023-08-30T05:51:47;13.60;;;7.03;;
52878;SDS011;38747;53.140;6.498;2023-08-30T05:54:13;13.00;;;6.63;;
52878;SDS011;38747;53.140;6.498;2023-08-30T05:56:39;13.65;;;6.55;;
52878;SDS011;38747;53.140;6.498;2023-08-30T05:59:04;11.60;;;6.93;;
52878;SDS011;38747;53.140;6.498;2023-08-30T06:01:30;12.23;;;6.40;;
52878;SDS011;38747;53.140;6.498;2023-08-30T06:03:56;11.83;;;6.37;;
52878;SDS011;38747;53.140;6.498;2023-08-30T06:06:21;12.75;;;6.60;;
52878;SDS011;38747;53.140;6.498;2023-08-30T06:08:47;14.43;;;6.67;;
52878;SDS011;38747;53.140;6.498;2023-08-30T06:11:13;11.25;;;6.32;;
52878;SDS011;38747;53.140;6.498;2023-08-30T06:13:40;11.80;;;6.95;;
52878;SDS011;38747;53.140;6.498;2023-08-30T06:16:05;12.73;;;6.53;;
52878;SDS011;38747;53.140;6.498;2023-08-30T06:18:31;12.70;;;6.37;;
52878;SDS011;38747;53.140;6.498;2023-08-30T06:20:57;12.85;;;7.03;;
52878;SDS011;38747;53.140;6.498;2023-08-30T06:23:23;12.77;;;6.55;;
52878;SDS011;38747;53.140;6.498;2023-08-30T06:25:55;13.73;;;6.07;;
52878;SDS011;38747;53.140;6.498;2023-08-30T06:28:21;13.10;;;7.05;;
52878;SDS011;38747;53.140;6.498;2023-08-30T06:30:47;11.90;;;6.50;;
52878;SDS011;38747;53.140;6.498;2023-08-30T06:33:13;10.90;;;6.27;;
52878;SDS011;38747;53.140;6.498;2023-08-30T06:35:39;13.60;;;6.28;;
52878;SDS011;38747;53.140;6.498;2023-08-30T06:38:05;12.70;;;6.67;;
52878;SDS011;38747;53.140;6.498;2023-08-30T06:40:30;11.15;;;6.03;;
52878;SDS011;38747;53.140;6.498;2023-08-30T06:42:57;10.82;;;6.10;;
52878;SDS011;38747;53.140;6.498;2023-08-30T06:45:24;11.73;;;6.00;;
52878;SDS011;38747;53.140;6.498;2023-08-30T06:47:50;12.27;;;6.70;;
52878;SDS011;38747;53.140;6.498;2023-08-30T06:50:17;12.55;;;6.00;;
52878;SDS011;38747;53.140;6.498;2023-08-30T06:52:42;11.67;;;6.43;;
52878;SDS011;38747;53.140;6.498;2023-08-30T06:55:08;12.60;;;6.18;;
52878;SDS011;38747;53.140;6.498;2023-08-30T06:57:34;11.15;;;5.40;;
52878;SDS011;38747;53.140;6.498;2023-08-30T07:00:00;11.77;;;5.57;;
52878;SDS011;38747;53.140;6.498;2023-08-30T07:02:32;14.80;;;6.00;;
52878;SDS011;38747;53.140;6.498;2023-08-30T07:05:02;11.80;;;5.72;;
52878;SDS011;38747;53.140;6.498;2023-08-30T07:07:30;12.00;;;5.50;;
52878;SDS011;38747;53.140;6.498;2023-08-30T07:09:56;10.95;;;5.50;;
52878;SDS011;38747;53.140;6.498;2023-08-30T07:12:21;11.60;;;5.77;;
52878;SDS011;38747;53.140;6.498;2023-08-30T07:14:47;10.90;;;5.63;;
52878;SDS011;38747;53.140;6.498;2023-08-30T07:17:13;10.97;;;5.40;;
52878;SDS011;38747;53.140;6.498;2023-08-30T07:19:38;14.20;;;5.85;;
52878;SDS011;38747;53.140;6.498;2023-08-30T07:22:04;10.37;;;5.27;;
52878;SDS011;38747;53.140;6.498;2023-08-30T07:24:30;12.57;;;5.22;;
52878;SDS011;38747;53.140;6.498;2023-08-30T07:26:55;12.00;;;6.00;;
52878;SDS011;38747;53.140;6.498;2023-08-30T07:29:21;11.20;;;5.50;;
52878;SDS011;38747;53.140;6.498;2023-08-30T07:31:47;10.27;;;5.50;;
52878;SDS011;38747;53.140;6.498;2023-08-30T07:34:12;10.73;;;5.07;;
52878;SDS011;38747;53.140;6.498;2023-08-30T07:36:38;10.23;;;5.57;;
52878;SDS011;38747;53.140;6.498;2023-08-30T07:39:04;11.68;;;5.20;;
52878;SDS011;38747;53.140;6.498;2023-08-30T07:41:29;9.97;;;4.77;;
52878;SDS011;38747;53.140;6.498;2023-08-30T07:43:56;9.80;;;4.63;;
52878;SDS011;38747;53.140;6.498;2023-08-30T07:46:21;9.77;;;4.90;;
52878;SDS011;38747;53.140;6.498;2023-08-30T07:48:47;9.88;;;4.78;;
52878;SDS011;38747;53.140;6.498;2023-08-30T07:51:13;11.17;;;4.87;;
52878;SDS011;38747;53.140;6.498;2023-08-30T07:53:38;12.68;;;4.50;;
52878;SDS011;38747;53.140;6.498;2023-08-30T07:56:04;10.23;;;4.50;;
52878;SDS011;38747;53.140;6.498;2023-08-30T07:58:29;11.73;;;4.63;;
52878;SDS011;38747;53.140;6.498;2023-08-30T08:00:55;9.80;;;4.77;;
52878;SDS011;38747;53.140;6.498;2023-08-30T08:03:21;10.40;;;4.60;;
52878;SDS011;38747;53.140;6.498;2023-08-30T08:05:47;9.50;;;4.60;;
52878;SDS011;38747;53.140;6.498;2023-08-30T08:08:12;9.43;;;4.68;;
52878;SDS011;38747;53.140;6.498;2023-08-30T08:10:39;10.77;;;5.07;;
52878;SDS011;38747;53.140;6.498;2023-08-30T08:13:06;10.10;;;5.25;;
52878;SDS011;38747;53.140;6.498;2023-08-30T08:15:32;12.13;;;5.20;;
52878;SDS011;38747;53.140;6.498;2023-08-30T08:17:59;10.88;;;5.15;;
52878;SDS011;38747;53.140;6.498;2023-08-30T08:20:25;11.15;;;6.20;;
52878;SDS011;38747;53.140;6.498;2023-08-30T08:22:51;9.83;;;5.17;;
52878;SDS011;38747;53.140;6.498;2023-08-30T08:25:16;11.35;;;5.70;;
52878;SDS011;38747;53.140;6.498;2023-08-30T08:27:42;11.13;;;5.60;;
52878;SDS011;38747;53.140;6.498;2023-08-30T08:30:08;10.93;;;5.20;;
52878;SDS011;38747;53.140;6.498;2023-08-30T08:32:35;11.07;;;5.63;;
52878;SDS011;38747;53.140;6.498;2023-08-30T08:35:01;13.40;;;5.57;;
52878;SDS011;38747;53.140;6.498;2023-08-30T08:37:27;10.63;;;5.40;;
52878;SDS011;38747;53.140;6.498;2023-08-30T08:39:53;10.90;;;4.82;;
52878;SDS011;38747;53.140;6.498;2023-08-30T08:42:19;10.23;;;5.40;;
52878;SDS011;38747;53.140;6.498;2023-08-30T08:44:51;11.90;;;5.10;;
52878;SDS011;38747;53.140;6.498;2023-08-30T08:47:20;11.77;;;5.20;;
52878;SDS011;38747;53.140;6.498;2023-08-30T08:49:49;11.45;;;5.25;;
52878;SDS011;38747;53.140;6.498;2023-08-30T08:52:16;9.50;;;4.85;;
52878;SDS011;38747;53.140;6.498;2023-08-30T08:54:41;9.73;;;5.07;;
52878;SDS011;38747;53.140;6.498;2023-08-30T08:57:08;11.93;;;5.68;;
52878;SDS011;38747;53.140;6.498;2023-08-30T08:59:34;10.05;;;4.88;;
52878;SDS011;38747;53.140;6.498;2023-08-30T09:02:01;11.77;;;5.32;;
52878;SDS011;38747;53.140;6.498;2023-08-30T09:04:28;11.67;;;5.57;;
52878;SDS011;38747;53.140;6.498;2023-08-30T09:06:56;10.05;;;4.90;;
52878;SDS011;38747;53.140;6.498;2023-08-30T09:09:23;9.90;;;4.90;;
52878;SDS011;38747;53.140;6.498;2023-08-30T09:11:49;11.10;;;4.63;;
52878;SDS011;38747;53.140;6.498;2023-08-30T09:14:15;9.40;;;4.70;;
52878;SDS011;38747;53.140;6.498;2023-08-30T09:16:40;10.90;;;4.68;;
52878;SDS011;38747;53.140;6.498;2023-08-30T09:19:06;9.73;;;4.40;;
52878;SDS011;38747;53.140;6.498;2023-08-30T09:21:32;9.27;;;4.75;;
52878;SDS011;38747;53.140;6.498;2023-08-30T09:24:02;8.23;;;4.27;;
52878;SDS011;38747;53.140;6.498;2023-08-30T09:26:29;9.77;;;4.18;;
52878;SDS011;38747;53.140;6.498;2023-08-30T09:29:06;10.25;;;4.68;;
52878;SDS011;38747;53.140;6.498;2023-08-30T09:31:36;10.95;;;4.78;;
52878;SDS011;38747;53.140;6.498;2023-08-30T09:34:04;11.65;;;4.85;;
52878;SDS011;38747;53.140;6.498;2023-08-30T09:36:39;9.50;;;4.40;;
52878;SDS011;38747;53.140;6.498;2023-08-30T09:39:10;10.05;;;5.07;;
52878;SDS011;38747;53.140;6.498;2023-08-30T09:41:37;11.75;;;5.35;;
52878;SDS011;38747;53.140;6.498;2023-08-30T09:44:06;9.38;;;4.40;;
52878;SDS011;38747;53.140;6.498;2023-08-30T09:46:45;9.82;;;4.72;;
52878;SDS011;38747;53.140;6.498;2023-08-30T09:49:14;10.00;;;5.13;;
52878;SDS011;38747;53.140;6.498;2023-08-30T09:51:40;8.98;;;4.75;;
52878;SDS011;38747;53.140;6.498;2023-08-30T09:54:10;10.98;;;4.88;;
52878;SDS011;38747;53.140;6.498;2023-08-30T09:56:40;12.02;;;5.15;;
52878;SDS011;38747;53.140;6.498;2023-08-30T09:59:06;10.68;;;5.18;;
52878;SDS011;38747;53.140;6.498;2023-08-30T10:01:33;10.27;;;4.70;;
52878;SDS011;38747;53.140;6.498;2023-08-30T10:03:59;11.90;;;5.10;;
52878;SDS011;38747;53.140;6.498;2023-08-30T10:06:28;9.43;;;4.78;;
52878;SDS011;38747;53.140;6.498;2023-08-30T10:08:54;9.57;;;4.47;;
52878;SDS011;38747;53.140;6.498;2023-08-30T10:11:22;9.18;;;4.13;;
52878;SDS011;38747;53.140;6.498;2023-08-30T10:13:49;8.30;;;4.30;;
52878;SDS011;38747;53.140;6.498;2023-08-30T10:16:22;9.55;;;4.30;;
52878;SDS011;38747;53.140;6.498;2023-08-30T10:18:52;10.57;;;4.40;;
52878;SDS011;38747;53.140;6.498;2023-08-30T10:21:23;8.90;;;4.25;;
52878;SDS011;38747;53.140;6.498;2023-08-30T10:23:50;10.52;;;4.00;;
52878;SDS011;38747;53.140;6.498;2023-08-30T10:26:20;8.97;;;4.30;;
52878;SDS011;38747;53.140;6.498;2023-08-30T10:28:52;9.77;;;4.40;;
52878;SDS011;38747;53.140;6.498;2023-08-30T10:31:18;8.27;;;3.92;;
52878;SDS011;38747;53.140;6.498;2023-08-30T10:33:53;8.83;;;4.23;;
52878;SDS011;38747;53.140;6.498;2023-08-30T10:36:22;8.27;;;4.00;;
52878;SDS011;38747;53.140;6.498;2023-08-30T10:38:52;7.45;;;3.78;;
52878;SDS011;38747;53.140;6.498;2023-08-30T10:41:23;8.77;;;3.90;;
52878;SDS011;38747;53.140;6.498;2023-08-30T10:43:51;6.75;;;3.15;;
52878;SDS011;38747;53.140;6.498;2023-08-30T10:46:30;7.17;;;3.50;;
52878;SDS011;38747;53.140;6.498;2023-08-30T10:48:56;6.78;;;3.00;;
52878;SDS011;38747;53.140;6.498;2023-08-30T10:51:37;6.57;;;2.70;;
52878;SDS011;38747;53.140;6.498;2023-08-30T10:54:13;7.78;;;3.05;;
52878;SDS011;38747;53.140;6.498;2023-08-30T10:56:47;9.60;;;2.97;;
52878;SDS011;38747;53.140;6.498;2023-08-30T10:59:19;7.27;;;2.90;;
52878;SDS011;38747;53.140;6.498;2023-08-30T11:01:46;7.40;;;3.15;;
52878;SDS011;38747;53.140;6.498;2023-08-30T11:04:14;7.53;;;3.10;;
52878;SDS011;38747;53.140;6.498;2023-08-30T11:06:45;6.90;;;3.10;;
52878;SDS011;38747;53.140;6.498;2023-08-30T11:09:12;7.53;;;3.25;;
52878;SDS011;38747;53.140;6.498;2023-08-30T11:11:46;6.47;;;3.10;;
52878;SDS011;38747;53.140;6.498;2023-08-30T11:14:12;8.82;;;4.30;;
52878;SDS011;38747;53.140;6.498;2023-08-30T11:16:39;9.52;;;4.30;;
52878;SDS011;38747;53.140;6.498;2023-08-30T11:19:06;10.02;;;4.25;;
52878;SDS011;38747;53.140;6.498;2023-08-30T11:21:34;9.23;;;4.53;;
52878;SDS011;38747;53.140;6.498;2023-08-30T11:24:03;8.47;;;3.97;;
52878;SDS011;38747;53.140;6.498;2023-08-30T11:26:29;8.32;;;4.03;;
52878;SDS011;38747;53.140;6.498;2023-08-30T11:28:55;7.57;;;3.83;;
52878;SDS011;38747;53.140;6.498;2023-08-30T11:31:21;7.10;;;3.80;;
52878;SDS011;38747;53.140;6.498;2023-08-30T11:33:54;9.57;;;3.90;;
52878;SDS011;38747;53.140;6.498;2023-08-30T11:36:22;7.35;;;3.53;;
52878;SDS011;38747;53.140;6.498;2023-08-30T11:38:50;8.60;;;3.60;;
52878;SDS011;38747;53.140;6.498;2023-08-30T11:41:19;7.73;;;3.03;;
52878;SDS011;38747;53.140;6.498;2023-08-30T11:43:46;6.13;;;2.80;;
52878;SDS011;38747;53.140;6.498;2023-08-30T11:46:13;8.20;;;3.45;;
52878;SDS011;38747;53.140;6.498;2023-08-30T11:48:42;8.07;;;3.50;;
52878;SDS011;38747;53.140;6.498;2023-08-30T11:51:09;8.45;;;3.67;;
52878;SDS011;38747;53.140;6.498;2023-08-30T11:53:36;7.30;;;3.47;;
52878;SDS011;38747;53.140;6.498;2023-08-30T11:56:03;7.40;;;3.42;;
52878;SDS011;38747;53.140;6.498;2023-08-30T11:58:36;6.63;;;3.42;;
52878;SDS011;38747;53.140;6.498;2023-08-30T12:01:02;7.43;;;3.97;;
52878;SDS011;38747;53.140;6.498;2023-08-30T12:03:29;7.80;;;3.90;;
52878;SDS011;38747;53.140;6.498;2023-08-30T12:05:56;7.50;;;3.70;;
52878;SDS011;38747;53.140;6.498;2023-08-30T12:08:23;7.15;;;3.35;;
52878;SDS011;38747;53.140;6.498;2023-08-30T12:10:50;8.27;;;3.42;;
52878;SDS011;38747;53.140;6.498;2023-08-30T12:13:23;7.18;;;3.58;;
52878;SDS011;38747;53.140;6.498;2023-08-30T12:15:49;8.93;;;3.83;;
52878;SDS011;38747;53.140;6.498;2023-08-30T12:18:16;7.67;;;3.30;;
52878;SDS011;38747;53.140;6.498;2023-08-30T12:20:52;7.93;;;3.75;;
52878;SDS011;38747;53.140;6.498;2023-08-30T12:23:26;7.75;;;3.65;;
52878;SDS011;38747;53.140;6.498;2023-08-30T12:26:01;8.23;;;4.00;;
52878;SDS011;38747;53.140;6.498;2023-08-30T12:28:40;7.80;;;4.07;;
52878;SDS011;38747;53.140;6.498;2023-08-30T12:31:09;9.00;;;4.53;;
52878;SDS011;38747;53.140;6.498;2023-08-30T12:33:35;8.85;;;4.35;;
52878;SDS011;38747;53.140;6.498;2023-08-30T12:36:02;10.57;;;4.60;;
52878;SDS011;38747;53.140;6.498;2023-08-30T12:38:28;8.27;;;4.40;;
52878;SDS011;38747;53.140;6.498;2023-08-30T12:40:55;8.30;;;4.25;;
52878;SDS011;38747;53.140;6.498;2023-08-30T12:43:22;8.57;;;4.32;;
52878;SDS011;38747;53.140;6.498;2023-08-30T12:45:48;7.88;;;4.10;;
52878;SDS011;38747;53.140;6.498;2023-08-30T12:48:15;9.13;;;4.10;;
52878;SDS011;38747;53.140;6.498;2023-08-30T12:50:48;7.87;;;3.90;;
52878;SDS011;38747;53.140;6.498;2023-08-30T12:53:14;9.73;;;4.60;;
52878;SDS011;38747;53.140;6.498;2023-08-30T12:55:41;7.95;;;4.10;;
52878;SDS011;38747;53.140;6.498;2023-08-30T12:58:07;9.57;;;4.47;;
52878;SDS011;38747;53.140;6.498;2023-08-30T13:00:34;9.07;;;4.80;;
52878;SDS011;38747;53.140;6.498;2023-08-30T13:03:00;9.10;;;5.07;;
52878;SDS011;38747;53.140;6.498;2023-08-30T13:05:26;10.30;;;5.47;;
52878;SDS011;38747;53.140;6.498;2023-08-30T13:07:52;9.33;;;5.17;;
52878;SDS011;38747;53.140;6.498;2023-08-30T13:10:17;13.27;;;6.38;;
52878;SDS011;38747;53.140;6.498;2023-08-30T13:12:43;10.02;;;5.45;;
52878;SDS011;38747;53.140;6.498;2023-08-30T13:15:09;10.73;;;5.80;;
52878;SDS011;38747;53.140;6.498;2023-08-30T13:17:35;10.73;;;5.95;;
52878;SDS011;38747;53.140;6.498;2023-08-30T13:20:01;10.52;;;5.55;;
52878;SDS011;38747;53.140;6.498;2023-08-30T13:22:28;10.03;;;5.90;;
52878;SDS011;38747;53.140;6.498;2023-08-30T13:24:54;10.65;;;5.80;;
52878;SDS011;38747;53.140;6.498;2023-08-30T13:27:20;11.80;;;5.78;;
52878;SDS011;38747;53.140;6.498;2023-08-30T13:29:46;11.90;;;5.93;;
52878;SDS011;38747;53.140;6.498;2023-08-30T13:32:11;10.50;;;5.85;;
52878;SDS011;38747;53.140;6.498;2023-08-30T13:34:37;10.73;;;5.97;;
52878;SDS011;38747;53.140;6.498;2023-08-30T13:37:10;10.60;;;5.80;;
52878;SDS011;38747;53.140;6.498;2023-08-30T13:39:37;9.95;;;5.68;;
52878;SDS011;38747;53.140;6.498;2023-08-30T13:42:03;10.60;;;5.72;;
52878;SDS011;38747;53.140;6.498;2023-08-30T13:44:29;11.40;;;6.40;;
52878;SDS011;38747;53.140;6.498;2023-08-30T13:46:55;9.07;;;5.17;;
52878;SDS011;38747;53.140;6.498;2023-08-30T13:49:20;9.57;;;5.15;;
52878;SDS011;38747;53.140;6.498;2023-08-30T13:51:46;9.47;;;5.20;;
52878;SDS011;38747;53.140;6.498;2023-08-30T13:54:12;12.00;;;5.95;;
52878;SDS011;38747;53.140;6.498;2023-08-30T13:56:37;10.07;;;5.90;;
52878;SDS011;38747;53.140;6.498;2023-08-30T13:59:03;10.50;;;5.82;;
52878;SDS011;38747;53.140;6.498;2023-08-30T14:01:31;8.97;;;5.00;;
52878;SDS011;38747;53.140;6.498;2023-08-30T14:03:57;9.48;;;5.30;;
52878;SDS011;38747;53.140;6.498;2023-08-30T14:06:22;9.00;;;4.97;;
52878;SDS011;38747;53.140;6.498;2023-08-30T14:08:48;9.57;;;5.10;;
52878;SDS011;38747;53.140;6.498;2023-08-30T14:11:14;8.33;;;4.77;;
52878;SDS011;38747;53.140;6.498;2023-08-30T14:13:40;8.10;;;4.78;;
52878;SDS011;38747;53.140;6.498;2023-08-30T14:16:05;9.37;;;4.50;;
52878;SDS011;38747;53.140;6.498;2023-08-30T14:18:31;8.33;;;4.67;;
52878;SDS011;38747;53.140;6.498;2023-08-30T14:21:00;8.82;;;4.60;;
52878;SDS011;38747;53.140;6.498;2023-08-30T14:23:27;9.02;;;5.28;;
52878;SDS011;38747;53.140;6.498;2023-08-30T14:26:02;9.52;;;5.22;;
52878;SDS011;38747;53.140;6.498;2023-08-30T14:28:38;11.67;;;4.97;;
52878;SDS011;38747;53.140;6.498;2023-08-30T14:31:08;7.30;;;3.97;;
52878;SDS011;38747;53.140;6.498;2023-08-30T14:33:35;7.80;;;4.32;;
52878;SDS011;38747;53.140;6.498;2023-08-30T14:36:01;8.00;;;4.18;;
52878;SDS011;38747;53.140;6.498;2023-08-30T14:38:28;8.00;;;4.43;;
52878;SDS011;38747;53.140;6.498;2023-08-30T14:40:57;8.37;;;4.67;;
52878;SDS011;38747;53.140;6.498;2023-08-30T14:43:24;9.68;;;4.85;;
52878;SDS011;38747;53.140;6.498;2023-08-30T14:45:49;8.65;;;5.15;;
52878;SDS011;38747;53.140;6.498;2023-08-30T14:48:15;9.50;;;4.87;;